createdAt,value
2023-03-10T00:02:22.894Z,73.72
2023-03-10T00:04:50.880Z,70.22
2023-03-10T00:07:17.670Z,78.25
2023-03-10T00:09:44.358Z,73.80
2023-03-10T00:12:11.181Z,73.25
2023-03-10T00:14:37.940Z,74.68
2023-03-10T00:17:05.118Z,74.82
2023-03-10T00:19:31.525Z,68.20
2023-03-10T00:21:58.029Z,70.05
2023-03-10T00:24:24.709Z,66.82
2023-03-10T00:26:51.371Z,73.18
2023-03-10T00:29:18.837Z,71.78
2023-03-10T00:31:45.326Z,82.22
2023-03-10T00:34:12.354Z,71.45
2023-03-10T00:36:40.425Z,67.95
2023-03-10T00:39:10.759Z,68.03
2023-03-10T00:41:39.197Z,60.25
2023-03-10T00:44:09.438Z,66.80
2023-03-10T00:46:38.724Z,70.65
2023-03-10T00:49:09.169Z,67.05
2023-03-10T00:51:35.827Z,72.72
2023-03-10T00:54:03.587Z,65.60
2023-03-10T00:56:30.447Z,63.55
2023-03-10T00:58:59.903Z,68.28
2023-03-10T01:01:34.143Z,63.53
2023-03-10T01:04:04.732Z,63.67
2023-03-10T01:06:31.674Z,62.00
2023-03-10T01:08:58.324Z,69.97
2023-03-10T01:11:27.575Z,68.40
2023-03-10T01:13:57.315Z,61.67
2023-03-10T01:16:24.097Z,67.13
2023-03-10T01:18:50.712Z,66.10
2023-03-10T01:21:23.255Z,64.68
2023-03-10T01:23:50.381Z,61.97
2023-03-10T01:26:18.749Z,63.35
2023-03-10T01:28:46.098Z,64.20
2023-03-10T01:31:13.037Z,59.33
2023-03-10T01:33:41.003Z,61.75
2023-03-10T01:36:09.391Z,60.35
2023-03-10T01:38:37.032Z,61.90
2023-03-10T01:41:04.456Z,62.22
2023-03-10T01:43:32.754Z,62.30
2023-03-10T01:46:02.244Z,66.00
2023-03-10T01:48:32.925Z,75.85
2023-03-10T01:51:00.302Z,74.10
2023-03-10T01:53:28.697Z,77.55
2023-03-10T01:55:59.632Z,68.45
2023-03-10T01:58:32.549Z,71.90
2023-03-10T02:00:59.005Z,74.50
2023-03-10T02:03:34.737Z,72.50
2023-03-10T02:09:44.755Z,61.72
2023-03-10T02:12:13.705Z,72.55
2023-03-10T02:14:41.295Z,70.95
2023-03-10T02:17:11.434Z,72.40
2023-03-10T02:20:01.972Z,75.80
2023-03-10T02:22:28.524Z,59.53
2023-03-10T02:25:05.449Z,64.78
2023-03-10T02:27:35.373Z,63.65
2023-03-10T02:30:21.266Z,60.13
2023-03-10T02:32:52.125Z,58.38
2023-03-10T02:35:18.798Z,64.53
2023-03-10T02:37:45.620Z,59.22
2023-03-10T02:40:33.964Z,63.90
2023-03-10T02:43:26.062Z,59.70
2023-03-10T02:45:55.518Z,61.63
2023-03-10T02:48:29.502Z,63.50
2023-03-10T02:50:57.750Z,58.85
2023-03-10T02:53:26.850Z,64.57
2023-03-10T02:55:54.243Z,60.42
2023-03-10T02:58:21.882Z,62.33
2023-03-10T03:00:50.234Z,59.45
2023-03-10T03:03:18.726Z,59.40
2023-03-10T03:05:45.803Z,63.10
2023-03-10T03:08:12.314Z,56.63
2023-03-10T03:10:39.058Z,46.50
2023-03-10T03:13:06.416Z,50.75
2023-03-10T03:15:33.340Z,49.90
2023-03-10T03:18:00.016Z,54.53
2023-03-10T03:20:27.840Z,51.50
2023-03-10T03:22:54.613Z,55.08
2023-03-10T03:25:22.978Z,49.75
2023-03-10T03:27:49.970Z,54.67
2023-03-10T03:30:22.262Z,54.90
2023-03-10T03:32:50.570Z,51.90
2023-03-10T03:35:24.594Z,59.55
2023-03-10T03:37:52.437Z,57.65
2023-03-10T03:40:20.075Z,69.43
2023-03-10T03:42:49.402Z,55.70
2023-03-10T03:45:18.178Z,65.70
2023-03-10T03:47:44.808Z,55.25
2023-03-10T03:50:13.178Z,64.68
2023-03-10T03:52:40.166Z,55.30
2023-03-10T03:55:08.430Z,64.30
2023-03-10T03:57:35.321Z,60.40
2023-03-10T04:00:02.556Z,58.90
2023-03-10T04:02:29.303Z,57.58
2023-03-10T04:04:55.959Z,55.83
2023-03-10T04:07:22.399Z,57.88
2023-03-10T04:09:48.824Z,52.55
2023-03-10T04:12:15.233Z,54.38
2023-03-10T04:14:41.706Z,58.58
2023-03-10T04:17:10.152Z,52.92
2023-03-10T04:19:37.593Z,57.28
2023-03-10T04:22:04.100Z,47.72
2023-03-10T04:24:30.610Z,51.47
2023-03-10T04:26:57.137Z,52.47
2023-03-10T04:29:24.530Z,44.05
2023-03-10T04:32:04.737Z,47.55
2023-03-10T04:34:32.698Z,56.15
2023-03-10T04:36:59.412Z,60.17
2023-03-10T04:39:25.945Z,48.70
2023-03-10T04:41:52.425Z,60.90
2023-03-10T04:44:30.408Z,53.33
2023-03-10T04:46:58.454Z,61.75
2023-03-10T04:49:24.972Z,55.35
2023-03-10T04:51:51.660Z,63.85
2023-03-10T04:54:18.375Z,62.22
2023-03-10T04:56:44.864Z,55.35
2023-03-10T04:59:11.307Z,59.65
2023-03-10T05:01:37.900Z,61.00
2023-03-10T05:04:05.785Z,61.90
2023-03-10T05:06:32.528Z,59.15
2023-03-10T05:09:00.962Z,60.15
2023-03-10T05:11:27.472Z,63.08
2023-03-10T05:13:54.006Z,65.93
2023-03-10T05:16:22.150Z,64.28
2023-03-10T05:18:48.648Z,56.42
2023-03-10T05:21:15.667Z,50.30
2023-03-10T05:23:42.270Z,49.10
2023-03-10T05:26:11.014Z,55.70
2023-03-10T05:28:37.913Z,50.17
2023-03-10T05:31:09.885Z,53.13
2023-03-10T05:33:36.379Z,53.97
2023-03-10T05:36:11.577Z,53.95
2023-03-10T05:38:38.404Z,50.92
2023-03-10T05:41:09.496Z,57.30
2023-03-10T05:43:37.099Z,50.72
2023-03-10T05:46:04.795Z,53.83
2023-03-10T05:48:31.758Z,48.38
2023-03-10T05:50:59.560Z,53.17
2023-03-10T05:53:26.313Z,48.45
2023-03-10T05:55:54.554Z,46.47
2023-03-10T05:58:21.046Z,50.58
2023-03-10T06:00:47.589Z,50.15
2023-03-10T06:03:14.146Z,52.67
2023-03-10T06:05:40.740Z,51.45
2023-03-10T06:08:07.328Z,50.70
2023-03-10T06:10:33.883Z,52.10
2023-03-10T06:13:00.372Z,53.08
2023-03-10T06:15:26.929Z,51.03
2023-03-10T06:17:53.421Z,58.72
2023-03-10T06:20:19.981Z,50.55
2023-03-10T06:22:46.401Z,49.58
2023-03-10T06:25:13.297Z,56.25
2023-03-10T06:27:39.772Z,50.03
2023-03-10T06:30:07.011Z,53.70
2023-03-10T06:32:34.748Z,47.60
2023-03-10T06:35:01.268Z,47.42
2023-03-10T06:37:28.112Z,50.03
2023-03-10T06:39:54.595Z,51.33
2023-03-10T06:42:21.113Z,53.22
2023-03-10T06:44:49.291Z,53.47
2023-03-10T06:47:15.846Z,47.17
2023-03-10T06:49:42.578Z,55.75
2023-03-10T06:52:09.039Z,53.75
2023-03-10T06:54:36.234Z,52.78
2023-03-10T06:57:04.965Z,49.80
2023-03-10T06:59:32.706Z,62.00
2023-03-10T07:01:59.178Z,50.75
2023-03-10T07:04:25.663Z,61.30
2023-03-10T07:06:52.364Z,55.28
2023-03-10T07:09:18.829Z,52.90
2023-03-10T07:11:45.363Z,60.10
2023-03-10T07:14:11.772Z,53.58
2023-03-10T07:16:41.198Z,50.53
2023-03-10T07:19:07.790Z,55.45
2023-03-10T07:21:34.234Z,58.63
2023-03-10T07:24:00.852Z,52.45
2023-03-10T07:26:27.488Z,52.08
2023-03-10T07:28:54.439Z,54.90
2023-03-10T07:31:21.151Z,56.20
2023-03-10T07:33:49.302Z,68.25
2023-03-10T07:36:18.541Z,57.10
2023-03-10T07:38:45.249Z,57.80
2023-03-10T07:41:16.131Z,64.80
2023-03-10T07:43:42.665Z,41.65
2023-03-10T07:46:12.310Z,62.38
2023-03-10T07:48:39.274Z,61.78
2023-03-10T07:51:06.271Z,62.17
2023-03-10T07:53:33.416Z,64.03
2023-03-10T07:56:00.133Z,66.88
2023-03-10T07:58:26.894Z,67.10
2023-03-10T08:00:57.550Z,59.20
2023-03-10T08:03:25.528Z,65.43
2023-03-10T08:05:52.169Z,63.13
2023-03-10T08:08:19.366Z,72.32
2023-03-10T08:10:46.329Z,70.45
2023-03-10T08:13:13.412Z,62.85
2023-03-10T08:15:40.289Z,66.50
2023-03-10T08:18:07.752Z,73.13
2023-03-10T08:20:37.302Z,72.32
2023-03-10T08:23:04.831Z,72.47
2023-03-10T08:25:31.278Z,69.30
2023-03-10T08:27:57.890Z,65.60
2023-03-10T08:30:25.070Z,72.68
2023-03-10T08:32:51.571Z,64.40
2023-03-10T08:35:18.195Z,66.25
2023-03-10T08:37:44.682Z,59.10
2023-03-10T08:40:13.662Z,73.03
2023-03-10T08:42:40.214Z,64.28
2023-03-10T08:45:08.819Z,64.38
2023-03-10T08:47:36.005Z,58.63
2023-03-10T08:50:03.808Z,58.20
2023-03-10T08:52:30.277Z,63.17
2023-03-10T08:54:59.513Z,51.40
2023-03-10T08:57:26.333Z,56.47
2023-03-10T08:59:52.964Z,54.95
2023-03-10T09:02:21.891Z,59.88
2023-03-10T09:04:49.497Z,42.15
2023-03-10T09:07:16.780Z,38.28
2023-03-10T09:09:43.717Z,34.78
2023-03-10T09:12:11.501Z,32.47
2023-03-10T09:14:38.414Z,32.97
2023-03-10T09:17:05.405Z,27.98
2023-03-10T09:19:31.876Z,27.67
2023-03-10T09:21:59.268Z,26.77
2023-03-10T09:24:25.794Z,29.08
2023-03-10T09:26:52.322Z,31.05
2023-03-10T09:29:18.775Z,33.17
2023-03-10T09:31:46.761Z,42.47
2023-03-10T09:34:13.803Z,33.42
2023-03-10T09:36:40.302Z,34.00
2023-03-10T09:39:06.868Z,33.50
2023-03-10T09:42:03.664Z,30.70
2023-03-10T09:44:47.669Z,33.45
2023-03-10T09:47:49.224Z,33.80
2023-03-10T09:50:40.421Z,26.98
2023-03-10T09:53:17.885Z,31.48
2023-03-10T09:55:48.568Z,30.05
2023-03-10T09:58:28.283Z,35.80
2023-03-10T10:00:54.754Z,39.92
2023-03-10T10:03:23.790Z,34.08
2023-03-10T10:05:53.677Z,28.48
2023-03-10T10:08:27.353Z,36.85
2023-03-10T10:10:58.246Z,26.00
2023-03-10T10:13:27.830Z,36.78
2023-03-10T10:16:24.667Z,36.38
2023-03-10T10:19:03.713Z,35.17
2023-03-10T10:21:43.081Z,32.70
2023-03-10T10:24:10.279Z,31.38
2023-03-10T10:26:36.811Z,29.85
2023-03-10T10:29:15.417Z,29.60
2023-03-10T10:31:42.061Z,31.25
2023-03-10T10:34:23.805Z,27.65
2023-03-10T10:39:32.412Z,28.40
2023-03-10T10:42:24.492Z,25.55
2023-03-10T10:44:56.698Z,22.48
2023-03-10T10:47:27.873Z,20.98
2023-03-10T10:49:55.617Z,20.13
2023-03-10T10:52:25.493Z,19.08
2023-03-10T10:54:58.782Z,17.98
2023-03-10T10:57:35.250Z,18.90
2023-03-10T11:00:25.083Z,21.98
2023-03-10T11:02:51.642Z,19.05
2023-03-10T11:05:18.118Z,17.92
2023-03-10T11:07:45.438Z,18.88
2023-03-10T11:10:17.604Z,18.48
2023-03-10T11:13:06.758Z,19.10
2023-03-10T11:15:37.886Z,21.77
2023-03-10T11:18:17.390Z,21.20
2023-03-10T11:21:07.114Z,20.05
2023-03-10T11:24:16.948Z,25.15
2023-03-10T11:26:59.002Z,28.00
2023-03-10T11:29:56.395Z,28.15
2023-03-10T11:32:34.952Z,29.77
2023-03-10T11:35:36.529Z,26.40
2023-03-10T11:38:19.154Z,25.33
2023-03-10T11:40:52.933Z,31.02
2023-03-10T11:43:38.234Z,24.08
2023-03-10T11:46:49.726Z,26.15
2023-03-10T11:49:17.447Z,30.92
2023-03-10T11:51:49.953Z,37.63
2023-03-10T11:54:27.516Z,31.88
2023-03-10T11:56:55.152Z,32.50
2023-03-10T11:59:24.585Z,34.90
2023-03-10T12:02:00.281Z,26.05
2023-03-10T12:04:48.803Z,24.90
2023-03-10T12:07:33.427Z,24.60
2023-03-10T12:10:04.245Z,22.88
2023-03-10T12:12:44.889Z,22.53
2023-03-10T12:15:24.862Z,25.52
2023-03-10T12:17:53.704Z,22.42
2023-03-10T12:20:24.845Z,19.75
2023-03-10T12:22:55.300Z,22.25
2023-03-10T12:25:27.979Z,21.83
2023-03-10T12:28:22.467Z,18.70
2023-03-10T12:31:06.428Z,16.27
2023-03-10T12:33:39.561Z,14.32
2023-03-10T12:36:29.745Z,16.98
2023-03-10T12:39:01.584Z,16.33
2023-03-10T12:41:27.945Z,15.80
2023-03-10T12:43:56.038Z,15.10
2023-03-10T12:46:25.034Z,12.95
2023-03-10T12:49:22.250Z,12.52
2023-03-10T12:52:11.532Z,12.60
2023-03-10T12:55:14.906Z,14.40
2023-03-10T12:57:55.541Z,12.23
2023-03-10T13:01:01.329Z,15.50
2023-03-10T13:03:42.354Z,14.93
2023-03-10T13:06:18.613Z,12.13
2023-03-10T13:09:11.430Z,11.40
2023-03-10T13:12:04.565Z,18.50
2023-03-10T13:14:39.817Z,15.90
2023-03-10T13:17:09.476Z,14.43
2023-03-10T13:19:37.404Z,13.38
2023-03-10T13:22:07.283Z,15.00
2023-03-10T13:24:36.035Z,14.60
2023-03-10T13:27:15.228Z,16.95
2023-03-10T13:30:05.504Z,13.68
2023-03-10T13:32:33.176Z,13.90
2023-03-10T13:35:21.988Z,13.07
2023-03-10T13:38:10.499Z,11.93
2023-03-10T13:40:46.341Z,11.73
2023-03-10T13:43:43.067Z,12.88
2023-03-10T13:46:28.362Z,8.82
2023-03-10T13:48:58.082Z,10.68
2023-03-10T13:51:26.412Z,8.60
2023-03-10T13:53:55.227Z,8.10
2023-03-10T13:56:28.765Z,8.60
2023-03-10T13:58:58.200Z,12.73
2023-03-10T14:01:28.336Z,11.32
2023-03-10T14:04:00.133Z,15.35
2023-03-10T14:06:30.321Z,12.20
2023-03-10T14:08:56.986Z,12.88
2023-03-10T14:11:41.049Z,11.55
2023-03-10T14:14:10.195Z,13.38
2023-03-10T14:16:53.606Z,13.32
2023-03-10T14:19:39.805Z,11.30
2023-03-10T14:22:22.482Z,16.25
2023-03-10T14:24:48.982Z,16.05
2023-03-10T14:27:15.484Z,19.58
2023-03-10T14:29:55.237Z,14.45
2023-03-10T14:32:22.956Z,16.55
2023-03-10T14:34:49.773Z,15.40
2023-03-10T14:37:16.469Z,16.02
2023-03-10T14:39:42.989Z,17.98
2023-03-10T14:42:22.259Z,17.33
2023-03-10T14:44:49.621Z,22.02
2023-03-10T14:47:17.145Z,19.33
2023-03-10T14:49:43.911Z,19.10
2023-03-10T14:52:14.699Z,19.13
2023-03-10T14:54:41.168Z,22.10
2023-03-10T14:57:08.307Z,18.92
2023-03-10T14:59:34.939Z,19.13
2023-03-10T15:02:10.486Z,18.83
2023-03-10T15:04:37.010Z,19.13
2023-03-10T15:07:03.496Z,26.42
2023-03-10T15:09:29.973Z,19.48
2023-03-10T15:11:57.095Z,20.63
2023-03-10T15:14:23.577Z,15.25
2023-03-10T15:16:50.048Z,19.50
2023-03-10T15:19:23.310Z,15.68
2023-03-10T15:21:50.548Z,18.77
2023-03-10T15:24:17.355Z,19.23
2023-03-10T15:26:43.919Z,18.30
2023-03-10T15:29:16.853Z,20.08
2023-03-10T15:31:43.494Z,23.13
2023-03-10T15:34:09.980Z,21.83
2023-03-10T15:36:36.855Z,21.67
2023-03-10T15:39:04.331Z,23.15
2023-03-10T15:41:35.072Z,26.48
2023-03-10T15:44:01.654Z,23.90
2023-03-10T15:46:28.238Z,24.55
2023-03-10T15:48:54.872Z,26.95
2023-03-10T15:51:22.194Z,33.20
2023-03-10T15:53:48.978Z,34.92
2023-03-10T15:56:15.853Z,29.85
2023-03-10T15:58:42.364Z,29.52
2023-03-10T16:01:11.535Z,35.33
2023-03-10T16:03:38.594Z,27.98
2023-03-10T16:06:05.951Z,30.55
2023-03-10T16:08:37.220Z,39.13
2023-03-10T16:11:15.007Z,35.38
2023-03-10T16:13:41.507Z,34.20
2023-03-10T16:16:09.095Z,37.42
2023-03-10T16:18:36.049Z,41.50
2023-03-10T16:21:03.595Z,42.75
2023-03-10T16:23:31.661Z,43.25
2023-03-10T16:26:08.722Z,45.17
2023-03-10T16:28:36.284Z,40.22
2023-03-10T16:31:04.275Z,38.88
2023-03-10T16:33:31.186Z,45.05
2023-03-10T16:35:59.451Z,43.78
2023-03-10T16:38:26.815Z,47.78
2023-03-10T16:40:54.385Z,57.30
2023-03-10T16:43:22.205Z,41.03
2023-03-10T16:45:51.007Z,56.55
2023-03-10T16:48:21.158Z,48.47
2023-03-10T16:50:47.809Z,49.25
2023-03-10T16:53:16.677Z,52.92
2023-03-10T16:55:44.140Z,51.22
2023-03-10T16:58:10.606Z,47.35
2023-03-10T17:00:37.921Z,49.55
2023-03-10T17:03:04.432Z,47.38
2023-03-10T17:05:31.128Z,45.55
2023-03-10T17:08:02.353Z,42.58
2023-03-10T17:10:31.927Z,46.15
2023-03-10T17:12:58.489Z,47.85
2023-03-10T17:15:24.945Z,52.33
2023-03-10T17:17:51.917Z,41.50
2023-03-10T17:20:18.580Z,43.33
2023-03-10T17:22:45.119Z,44.33
2023-03-10T17:25:13.424Z,47.45
2023-03-10T17:27:41.749Z,46.63
2023-03-10T17:30:09.807Z,44.10
2023-03-10T17:32:37.110Z,41.08
2023-03-10T17:35:05.538Z,45.78
2023-03-10T17:37:31.972Z,47.42
2023-03-10T17:39:58.509Z,50.15
2023-03-10T17:42:26.517Z,44.55
2023-03-10T17:44:53.012Z,51.97
2023-03-10T17:47:19.470Z,53.63
2023-03-10T17:49:45.979Z,58.30
2023-03-10T17:52:12.525Z,53.67
2023-03-10T17:54:39.316Z,54.63
2023-03-10T17:57:05.895Z,53.28
2023-03-10T17:59:33.423Z,50.85
2023-03-10T18:02:02.577Z,48.42
2023-03-10T18:04:30.180Z,49.45
2023-03-10T18:06:56.641Z,51.88
2023-03-10T18:09:23.198Z,59.03
2023-03-10T18:11:49.726Z,53.33
2023-03-10T18:14:16.366Z,58.72
2023-03-10T18:16:42.973Z,49.90
2023-03-10T18:19:11.213Z,50.60
2023-03-10T18:21:38.185Z,46.10
2023-03-10T18:24:04.973Z,48.42
2023-03-10T18:26:31.527Z,51.50
2023-03-10T18:28:59.229Z,46.67
2023-03-10T18:31:28.298Z,45.17
2023-03-10T18:33:55.103Z,48.00
2023-03-10T18:36:23.922Z,47.00
2023-03-10T18:38:51.232Z,51.80
2023-03-10T18:41:19.619Z,43.25
2023-03-10T18:43:46.507Z,45.53
2023-03-10T18:46:13.153Z,43.35
2023-03-10T18:48:39.667Z,45.90
2023-03-10T18:51:06.141Z,48.85
2023-03-10T18:53:32.772Z,46.78
2023-03-10T18:56:00.040Z,44.33
2023-03-10T18:58:26.975Z,45.45
2023-03-10T19:00:53.506Z,44.97
2023-03-10T19:03:20.048Z,37.83
2023-03-10T19:05:46.739Z,43.80
2023-03-10T19:08:13.284Z,35.67
2023-03-10T19:10:40.188Z,42.92
2023-03-10T19:13:07.925Z,40.58
2023-03-10T19:15:36.547Z,48.38
2023-03-10T19:18:03.922Z,42.83
2023-03-10T19:20:30.391Z,42.85
2023-03-10T19:22:57.312Z,45.88
2023-03-10T19:25:23.956Z,49.92
2023-03-10T19:27:50.620Z,46.63
2023-03-10T19:30:22.713Z,44.83
2023-03-10T19:32:49.286Z,44.55
2023-03-10T19:35:18.351Z,40.97
2023-03-10T19:37:46.956Z,43.50
2023-03-10T19:40:16.272Z,45.47
2023-03-10T19:42:43.224Z,41.58
2023-03-10T19:45:11.963Z,40.47
2023-03-10T19:47:38.769Z,40.25
2023-03-10T19:50:06.579Z,39.47
2023-03-10T19:52:33.033Z,39.10
2023-03-10T19:54:59.871Z,43.85
2023-03-10T19:57:26.379Z,42.05
2023-03-10T19:59:53.109Z,43.22
2023-03-10T20:02:19.700Z,39.30
2023-03-10T20:04:47.644Z,42.90
2023-03-10T20:07:14.132Z,49.33
2023-03-10T20:09:40.602Z,53.47
2023-03-10T20:12:07.165Z,48.45
2023-03-10T20:14:33.677Z,49.80
2023-03-10T20:17:00.218Z,52.80
2023-03-10T20:19:26.770Z,57.78
2023-03-10T20:21:53.273Z,55.47
2023-03-10T20:24:20.610Z,57.20
2023-03-10T20:26:48.936Z,56.28
2023-03-10T20:29:15.389Z,57.25
2023-03-10T20:31:42.042Z,54.75
2023-03-10T20:34:18.243Z,55.08
2023-03-10T20:36:45.676Z,53.50
2023-03-10T20:39:12.145Z,61.08
2023-03-10T20:41:38.739Z,60.40
2023-03-10T20:44:09.439Z,57.45
2023-03-10T20:46:36.027Z,53.50
2023-03-10T20:49:02.514Z,52.63
2023-03-10T20:51:29.224Z,56.88
2023-03-10T20:53:56.897Z,55.65
2023-03-10T20:56:23.357Z,60.85
2023-03-10T20:58:49.888Z,63.88
2023-03-10T21:01:19.116Z,61.17
2023-03-10T21:03:45.750Z,60.42
2023-03-10T21:06:12.169Z,65.43
2023-03-10T21:08:38.702Z,64.55
2023-03-10T21:11:05.157Z,63.28
2023-03-10T21:13:31.763Z,61.45
2023-03-10T21:15:58.604Z,65.18
2023-03-10T21:18:25.872Z,72.40
2023-03-10T21:20:52.330Z,69.57
2023-03-10T21:23:18.734Z,68.13
2023-03-10T21:25:45.250Z,66.47
2023-03-10T21:28:11.751Z,65.90
2023-03-10T21:30:38.784Z,64.82
2023-03-10T21:33:05.295Z,67.55
2023-03-10T21:35:34.367Z,67.05
2023-03-10T21:38:00.932Z,70.97
2023-03-10T21:40:28.180Z,73.03
2023-03-10T21:42:54.654Z,72.38
2023-03-10T21:45:23.827Z,64.82
2023-03-10T21:47:50.346Z,69.10
2023-03-10T21:50:17.820Z,68.35
2023-03-10T21:52:44.763Z,59.33
2023-03-10T21:55:21.177Z,63.88
2023-03-10T21:57:47.778Z,58.08
2023-03-10T22:00:15.394Z,56.45
2023-03-10T22:02:42.166Z,59.88
2023-03-10T22:05:12.726Z,62.22
2023-03-10T22:07:39.664Z,56.27
2023-03-10T22:10:07.972Z,52.67
2023-03-10T22:12:34.724Z,52.40
2023-03-10T22:15:01.501Z,52.60
2023-03-10T22:17:28.287Z,56.72
2023-03-10T22:19:54.883Z,52.35
2023-03-10T22:22:22.688Z,53.50
2023-03-10T22:24:49.848Z,54.25
2023-03-10T22:27:16.993Z,54.72
2023-03-10T22:29:43.463Z,60.83
2023-03-10T22:32:09.969Z,56.72
2023-03-10T22:34:36.359Z,55.00
2023-03-10T22:37:02.805Z,65.22
2023-03-10T22:39:29.271Z,58.72
2023-03-10T22:41:55.792Z,56.95
2023-03-10T22:44:22.863Z,59.60
2023-03-10T22:46:50.100Z,49.97
2023-03-10T22:49:16.654Z,46.88
2023-03-10T22:51:43.330Z,49.38
2023-03-10T22:54:09.776Z,55.58
2023-03-10T22:56:36.214Z,60.17
2023-03-10T22:59:04.360Z,58.42
2023-03-10T23:01:30.946Z,68.97
2023-03-10T23:03:57.451Z,57.38
2023-03-10T23:06:26.233Z,54.67
2023-03-10T23:08:52.762Z,57.92
2023-03-10T23:11:19.219Z,58.22
2023-03-10T23:13:45.685Z,55.10
2023-03-10T23:16:12.177Z,50.47
2023-03-10T23:18:38.688Z,57.53
2023-03-10T23:21:06.226Z,50.90
2023-03-10T23:23:33.008Z,57.75
2023-03-10T23:25:59.517Z,56.67
2023-03-10T23:28:26.326Z,58.97
2023-03-10T23:30:54.235Z,56.63
2023-03-10T23:33:23.753Z,55.55
2023-03-10T23:35:53.696Z,55.22
2023-03-10T23:38:22.661Z,60.38
2023-03-10T23:40:50.544Z,63.80
2023-03-10T23:43:17.572Z,66.43
2023-03-10T23:45:44.603Z,68.25
2023-03-10T23:48:16.071Z,65.28
2023-03-10T23:53:12.320Z,60.95
2023-03-10T23:55:42.421Z,62.17
2023-03-10T23:58:09.989Z,56.75
